Time;durP1;ratioP1;P1;durP2;ratioP2;P2;SDS_P1;SDS_P2;PMS_P1;PMS_P2;Temp;Humidity;BMP_temperature;BMP_pressure;BME280_temperature;BME280_humidity;BME280_pressure;Samples;Min_cycle;Max_cycle;Signal;HPM_P1;HPM_P2
2023/02/14 00:00:03;;;;;;;50.08;22.40;;;0.90;99.90;;;;;;4959890;28;20047;-72
2023/02/14 00:02:33;;;;;;;41.63;20.27;;;0.90;99.90;;;;;;4975262;28;20340;-73
2023/02/14 00:05:00;;;;;;;37.90;18.40;;;0.90;99.90;;;;;;4956796;28;20042;-72
2023/02/14 00:07:27;;;;;;;37.85;18.45;;;0.80;99.90;;;;;;4969015;28;20122;-73
2023/02/14 00:09:54;;;;;;;39.60;17.98;;;0.90;99.90;;;;;;4973347;28;20055;-72
2023/02/14 00:12:20;;;;;;;34.00;17.25;;;0.90;99.90;;;;;;4971797;28;20042;-72
2023/02/14 00:17:33;;;;;;;;;;;0.80;99.90;;;;;;4968932;28;20047;-72
2023/02/14 00:20:00;;;;;;;37.53;18.65;;;0.70;99.90;;;;;;4971210;28;20543;-72
2023/02/14 00:22:27;;;;;;;30.10;16.75;;;0.70;99.90;;;;;;4976173;28;20187;-72
2023/02/14 00:24:54;;;;;;;41.10;20.00;;;0.60;99.90;;;;;;4970549;28;20169;-73
2023/02/14 00:27:20;;;;;;;35.95;18.40;;;0.50;99.90;;;;;;4972374;28;20149;-72
2023/02/14 00:29:47;;;;;;;36.72;18.98;;;0.50;99.90;;;;;;4975680;28;20401;-73
2023/02/14 00:32:14;;;;;;;38.45;21.83;;;0.50;99.90;;;;;;4977990;28;20042;-73
2023/02/14 00:34:41;;;;;;;45.35;23.80;;;0.60;99.90;;;;;;4980306;28;20052;-72
2023/02/14 00:37:09;;;;;;;52.78;25.75;;;0.90;99.90;;;;;;4973372;28;20508;-72
2023/02/14 00:39:36;;;;;;;53.20;23.90;;;1.00;99.90;;;;;;4970053;28;20133;-72
2023/02/14 00:42:04;;;;;;;49.00;22.02;;;1.00;99.90;;;;;;4980311;28;20100;-73
2023/02/14 00:44:31;;;;;;;44.22;22.55;;;0.90;99.90;;;;;;4981844;28;20078;-72
2023/02/14 00:46:58;;;;;;;41.53;20.15;;;0.80;99.90;;;;;;4979775;28;20038;-72
2023/02/14 00:49:25;;;;;;;35.88;18.23;;;0.70;99.90;;;;;;4961763;28;20057;-72
2023/02/14 00:51:52;;;;;;;39.33;17.77;;;0.70;99.90;;;;;;4973929;28;20479;-72
2023/02/14 00:54:18;;;;;;;42.63;17.48;;;0.90;99.90;;;;;;4975326;28;20034;-72
2023/02/14 00:56:45;;;;;;;51.20;18.00;;;0.90;99.90;;;;;;4964182;28;20046;-72
2023/02/14 00:59:11;;;;;;;34.10;15.55;;;1.00;99.90;;;;;;4978439;28;20493;-72
2023/02/14 01:01:40;;;;;;;35.65;14.48;;;1.00;99.90;;;;;;4972123;28;20077;-72
2023/02/14 01:04:08;;;;;;;30.70;12.68;;;0.90;99.90;;;;;;4961735;28;20069;-72
2023/02/14 01:06:35;;;;;;;28.52;12.75;;;1.00;99.90;;;;;;4967710;28;20042;-72
2023/02/14 01:09:02;;;;;;;24.88;12.90;;;1.10;99.90;;;;;;4966353;28;20538;-72
2023/02/14 01:11:31;;;;;;;26.45;11.80;;;0.90;99.90;;;;;;4979848;28;20238;-72
2023/02/14 01:13:58;;;;;;;26.75;11.95;;;0.80;99.90;;;;;;4972262;28;20489;-74
2023/02/14 01:16:28;;;;;;;20.63;11.25;;;1.00;99.90;;;;;;4975150;28;20101;-73
2023/02/14 01:18:59;;;;;;;26.50;11.75;;;1.00;99.90;;;;;;4965172;28;20030;-72
2023/02/14 01:21:27;;;;;;;24.25;11.70;;;0.90;99.90;;;;;;4981092;28;20050;-71
2023/02/14 01:23:56;;;;;;;22.45;11.82;;;1.10;99.90;;;;;;4966469;28;20587;-72
2023/02/14 01:26:24;;;;;;;19.15;9.95;;;1.10;99.90;;;;;;4970742;28;20039;-71
2023/02/14 01:28:51;;;;;;;18.75;9.88;;;1.00;99.90;;;;;;4964632;28;20512;-72
2023/02/14 01:31:21;;;;;;;26.23;11.43;;;1.00;99.90;;;;;;4977125;28;20624;-73
2023/02/14 01:33:49;;;;;;;16.02;9.73;;;0.80;99.90;;;;;;4975409;28;20074;-72
2023/02/14 01:36:28;;;;;;;24.48;11.90;;;0.80;99.90;;;;;;4986097;28;20043;-72
2023/02/14 01:38:57;;;;;;;33.08;13.88;;;0.90;99.90;;;;;;4983701;28;20053;-73
2023/02/14 01:41:26;;;;;;;32.33;14.02;;;1.00;99.90;;;;;;4973708;28;20042;-72
2023/02/14 01:44:02;;;;;;;29.92;13.75;;;0.90;99.90;;;;;;4961628;28;20042;-74
2023/02/14 01:46:35;;;;;;;31.27;13.63;;;0.90;99.90;;;;;;4983952;28;20554;-72
2023/02/14 01:49:17;;;;;;;30.48;14.13;;;1.00;99.90;;;;;;4956897;28;20137;-75
2023/02/14 01:51:58;;;;;;;37.05;13.60;;;1.00;99.90;;;;;;4982870;28;20057;-71
2023/02/14 01:54:27;;;;;;;30.65;13.32;;;1.00;99.90;;;;;;4981118;28;20046;-74
2023/02/14 01:56:59;;;;;;;31.65;13.98;;;1.20;99.90;;;;;;4964946;28;20061;-74
2023/02/14 01:59:29;;;;;;;25.40;13.07;;;1.20;99.90;;;;;;4963434;28;20038;-73
2023/02/14 02:01:57;;;;;;;23.98;12.27;;;1.00;99.90;;;;;;4970235;28;20790;-74
2023/02/14 02:04:32;;;;;;;26.25;12.77;;;0.90;99.90;;;;;;4971077;28;20202;-73
2023/02/14 02:07:06;;;;;;;29.10;12.02;;;1.00;99.90;;;;;;4984415;28;20333;-73
2023/02/14 02:09:41;;;;;;;33.05;12.48;;;0.90;99.90;;;;;;4987347;28;20080;-73
2023/02/14 02:12:08;;;;;;;35.80;13.55;;;0.80;99.90;;;;;;4971310;28;20096;-71
2023/02/14 02:14:35;;;;;;;31.20;13.23;;;0.70;99.90;;;;;;4978460;28;20481;-73
2023/02/14 02:17:19;;;;;;;31.20;13.48;;;0.70;99.90;;;;;;4972155;28;20042;-72
2023/02/14 02:19:48;;;;;;;27.00;12.57;;;0.60;99.90;;;;;;4964356;28;20053;-71
2023/02/14 02:22:45;;;;;;;30.52;13.02;;;0.60;99.90;;;;;;4973998;28;20046;-72
2023/02/14 02:25:20;;;;;;;28.05;12.57;;;0.80;99.90;;;;;;4975053;28;20049;-72
2023/02/14 02:28:02;;;;;;;30.83;13.35;;;0.80;99.90;;;;;;4986542;28;20133;-72
2023/02/14 02:30:57;;;;;;;35.30;13.57;;;0.70;99.90;;;;;;4963620;28;20050;-71
2023/02/14 02:33:42;;;;;;;24.88;12.25;;;0.90;99.90;;;;;;4970267;28;20053;-72
2023/02/14 02:36:12;;;;;;;29.00;12.82;;;0.90;99.90;;;;;;4965532;28;20043;-72
2023/02/14 02:38:47;;;;;;;28.73;12.23;;;0.90;99.90;;;;;;4973339;28;20035;-71
2023/02/14 02:41:40;;;;;;;26.20;12.48;;;0.80;99.90;;;;;;4970690;28;20067;-74
2023/02/14 02:44:14;;;;;;;34.58;13.13;;;0.70;99.90;;;;;;4982272;28;20042;-74
2023/02/14 02:47:06;;;;;;;32.20;12.68;;;0.70;99.90;;;;;;4971539;28;20042;-72
2023/02/14 02:53:02;;;;;;;38.75;14.05;;;0.90;99.90;;;;;;4975108;28;20378;-71
2023/02/14 02:58:30;;;;;;;25.42;12.18;;;0.90;99.90;;;;;;4957054;28;20047;-71
2023/02/14 03:00:58;;;;;;;24.30;12.30;;;0.80;99.90;;;;;;4972664;28;20133;-72
2023/02/14 03:06:14;;;;;;;22.35;11.15;;;0.80;99.90;;;;;;4970072;28;20038;-71
2023/02/14 03:08:40;;;;;;;20.20;8.98;;;0.80;99.90;;;;;;4969557;28;20374;-72
2023/02/14 03:11:11;;;;;;;20.75;9.80;;;0.60;99.90;;;;;;4966280;28;20617;-72
2023/02/14 03:13:42;;;;;;;24.60;11.80;;;0.50;99.90;;;;;;4984132;28;20124;-73
2023/02/14 03:16:31;;;;;;;27.30;11.20;;;0.70;99.90;;;;;;4970683;28;20115;-74
2023/02/14 03:22:33;;;;;;;22.33;10.75;;;0.70;99.90;;;;;;4960367;28;20424;-74
2023/02/14 03:25:26;;;;;;;23.42;9.98;;;0.70;99.90;;;;;;4978459;28;20043;-74
2023/02/14 03:28:10;;;;;;;26.92;11.88;;;0.70;99.90;;;;;;4976993;28;20050;-74
2023/02/14 03:30:47;;;;;;;20.83;11.60;;;0.40;99.90;;;;;;4974203;28;20054;-71
2023/02/14 03:33:28;;;;;;;19.80;9.30;;;0.30;99.90;;;;;;4971645;28;20039;-73
2023/02/14 03:36:20;;;;;;;17.35;8.93;;;0.30;99.90;;;;;;4971714;28;20618;-74
2023/02/14 03:39:09;;;;;;;17.52;8.93;;;0.30;99.90;;;;;;4962598;28;20069;-72
2023/02/14 03:41:46;;;;;;;17.88;9.35;;;0.20;99.90;;;;;;4968434;28;20428;-72
2023/02/14 03:44:18;;;;;;;13.90;8.70;;;0.20;99.90;;;;;;4967132;28;20096;-72
2023/02/14 03:46:50;;;;;;;15.57;8.45;;;0.30;99.90;;;;;;4966363;28;20317;-74
2023/02/14 03:49:22;;;;;;;19.13;9.13;;;0.50;99.90;;;;;;4970726;28;20042;-74
2023/02/14 03:51:53;;;;;;;18.70;8.35;;;0.60;99.90;;;;;;4977124;28;20454;-72
2023/02/14 03:54:22;;;;;;;17.70;8.38;;;0.40;99.90;;;;;;4973016;28;20034;-72
2023/02/14 03:56:55;;;;;;;17.88;8.95;;;0.40;99.90;;;;;;4977929;28;20050;-72
2023/02/14 03:59:26;;;;;;;17.58;8.07;;;0.30;99.90;;;;;;4980038;28;20052;-72
2023/02/14 04:02:02;;;;;;;16.83;8.55;;;0.20;99.90;;;;;;4982494;28;20038;-72
2023/02/14 04:04:34;;;;;;;18.58;8.85;;;0.10;99.90;;;;;;4976245;28;20315;-72
2023/02/14 04:07:12;;;;;;;22.42;9.98;;;0.40;99.90;;;;;;4982193;28;20057;-72
2023/02/14 04:09:39;;;;;;;21.83;9.82;;;0.50;99.90;;;;;;4989422;28;20050;-72
2023/02/14 04:12:06;;;;;;;29.27;11.90;;;0.60;99.90;;;;;;4987325;28;20160;-73
2023/02/14 04:14:33;;;;;;;30.55;14.23;;;0.70;99.90;;;;;;4992530;28;20030;-74
2023/02/14 04:19:45;;;;;;;43.53;20.45;;;0.70;99.90;;;;;;5001484;23;21415;-73
2023/02/14 04:22:12;;;;;;;29.70;14.07;;;0.80;99.90;;;;;;4976221;28;20404;-72
2023/02/14 04:24:39;;;;;;;26.00;14.70;;;0.70;99.90;;;;;;4949147;28;20120;-70
2023/02/14 04:27:11;;;;;;;17.63;8.95;;;0.70;99.90;;;;;;4940606;28;20047;-72
2023/02/14 04:29:41;;;;;;;13.50;7.20;;;0.70;99.90;;;;;;4923029;28;20533;-72
2023/02/14 04:32:10;;;;;;;13.88;7.32;;;0.70;99.90;;;;;;4930070;28;20045;-73
2023/02/14 04:34:38;;;;;;;17.95;8.90;;;0.60;99.90;;;;;;4925426;28;20342;-71
2023/02/14 04:37:06;;;;;;;16.35;7.78;;;0.50;99.90;;;;;;4912541;28;20130;-71
2023/02/14 04:39:33;;;;;;;21.33;9.48;;;0.70;99.90;;;;;;4904618;28;20074;-72
2023/02/14 04:42:01;;;;;;;19.65;8.95;;;0.60;99.90;;;;;;4927089;28;20162;-72
2023/02/14 04:44:27;;;;;;;27.48;11.63;;;0.60;99.90;;;;;;4912580;28;20081;-72
2023/02/14 04:46:54;;;;;;;27.33;11.13;;;0.70;99.90;;;;;;4915895;28;20234;-72
2023/02/14 04:49:21;;;;;;;31.98;11.75;;;0.80;99.90;;;;;;4933624;28;20131;-72
2023/02/14 04:51:48;;;;;;;30.23;10.55;;;0.80;99.90;;;;;;4927699;28;20729;-71
2023/02/14 04:54:15;;;;;;;20.98;9.18;;;0.80;99.90;;;;;;4931787;28;20040;-73
2023/02/14 04:56:41;;;;;;;22.40;8.15;;;0.70;99.90;;;;;;4910814;28;20578;-73
2023/02/14 04:59:08;;;;;;;16.75;8.07;;;0.70;99.90;;;;;;4931293;28;20051;-72
2023/02/14 05:01:35;;;;;;;16.15;7.90;;;0.70;99.90;;;;;;4927795;28;20175;-73
2023/02/14 05:04:02;;;;;;;21.63;8.23;;;0.50;99.90;;;;;;4931129;28;20031;-74
2023/02/14 05:06:29;;;;;;;19.70;9.07;;;0.50;99.90;;;;;;4912583;28;20567;-71
2023/02/14 05:08:55;;;;;;;18.25;8.40;;;0.40;99.90;;;;;;4931457;28;20424;-72
2023/02/14 05:11:22;;;;;;;22.50;9.57;;;0.20;99.90;;;;;;4950947;28;20053;-72
2023/02/14 05:13:49;;;;;;;19.70;9.80;;;0.10;99.90;;;;;;4946091;28;20529;-71
2023/02/14 05:16:16;;;;;;;20.50;9.88;;;0.20;99.90;;;;;;4952067;28;20317;-72
2023/02/14 05:18:43;;;;;;;25.10;9.13;;;0.40;99.90;;;;;;4945970;28;20039;-72
2023/02/14 05:21:10;;;;;;;17.98;8.27;;;0.40;99.90;;;;;;4933694;28;20031;-71
2023/02/14 05:23:37;;;;;;;17.27;8.98;;;0.40;99.90;;;;;;4948619;28;20525;-72
2023/02/14 05:26:04;;;;;;;28.45;10.80;;;0.40;99.90;;;;;;4933048;28;20511;-72
2023/02/14 05:28:31;;;;;;;21.63;10.40;;;0.40;99.90;;;;;;4944850;28;20117;-70
2023/02/14 05:30:58;;;;;;;35.65;12.95;;;0.50;99.90;;;;;;4931681;28;20520;-71
2023/02/14 05:33:26;;;;;;;43.05;15.07;;;0.60;99.90;;;;;;4948942;28;20066;-72
2023/02/14 05:35:52;;;;;;;45.60;18.60;;;0.50;99.90;;;;;;4947415;28;20366;-73
2023/02/14 05:38:19;;;;;;;41.05;18.13;;;0.60;99.90;;;;;;4932882;28;20042;-71
2023/02/14 05:40:46;;;;;;;46.03;18.65;;;0.60;99.90;;;;;;4946205;28;20589;-72
2023/02/14 05:43:12;;;;;;;47.45;18.80;;;0.50;99.90;;;;;;4947896;28;20397;-73
2023/02/14 05:45:39;;;;;;;39.97;19.02;;;0.40;99.90;;;;;;4930027;28;20050;-71
2023/02/14 05:48:06;;;;;;;62.08;21.33;;;0.30;99.90;;;;;;4948814;28;20466;-73
2023/02/14 05:50:33;;;;;;;66.38;23.80;;;0.40;99.90;;;;;;4929119;28;20121;-71
2023/02/14 05:53:00;;;;;;;57.22;21.40;;;0.50;99.90;;;;;;4950418;28;20415;-71
2023/02/14 05:55:27;;;;;;;51.70;19.38;;;0.50;99.90;;;;;;4950065;28;20067;-73
2023/02/14 05:57:53;;;;;;;51.58;18.65;;;0.50;99.90;;;;;;4932420;28;20031;-72
2023/02/14 06:00:21;;;;;;;50.25;19.48;;;0.50;99.90;;;;;;4950955;28;20090;-73
2023/02/14 06:02:48;;;;;;;46.22;17.75;;;0.50;99.90;;;;;;4929880;28;20410;-70
2023/02/14 06:05:16;;;;;;;38.55;16.60;;;0.50;99.90;;;;;;4930583;28;20038;-73
2023/02/14 06:07:49;;;;;;;40.30;16.92;;;0.40;99.90;;;;;;4950864;28;20043;-73
2023/02/14 06:10:21;;;;;;;47.05;18.17;;;0.40;99.90;;;;;;4954524;28;20047;-72
2023/02/14 06:12:50;;;;;;;52.53;19.73;;;0.50;99.90;;;;;;4952526;28;20212;-70
2023/02/14 06:15:17;;;;;;;63.28;20.60;;;0.50;99.90;;;;;;4956918;28;20258;-72
2023/02/14 06:17:44;;;;;;;79.90;27.77;;;0.50;99.90;;;;;;4953179;28;20058;-71
2023/02/14 06:20:11;;;;;;;76.50;26.02;;;0.40;99.90;;;;;;4920866;28;20070;-74
2023/02/14 06:22:38;;;;;;;54.38;20.90;;;0.40;99.90;;;;;;4945593;28;20137;-73
2023/02/14 06:25:07;;;;;;;70.13;25.02;;;0.30;99.90;;;;;;4926303;28;20181;-73
2023/02/14 06:27:33;;;;;;;84.07;32.05;;;0.20;99.90;;;;;;4946318;28;20437;-72
2023/02/14 06:30:00;;;;;;;71.85;26.17;;;0.10;99.90;;;;;;4944336;28;20572;-72
2023/02/14 06:32:27;;;;;;;103.10;36.65;;;0.20;99.90;;;;;;4928711;28;20090;-72
2023/02/14 06:34:54;;;;;;;126.07;48.92;;;0.10;99.90;;;;;;4927077;28;20142;-72
2023/02/14 06:37:20;;;;;;;107.03;40.72;;;0.10;99.90;;;;;;4924953;28;20043;-72
2023/02/14 06:39:47;;;;;;;135.25;45.92;;;0.10;99.90;;;;;;4920697;28;20046;-75
2023/02/14 06:42:14;;;;;;;126.95;47.10;;;0.10;99.90;;;;;;4949129;28;20209;-70
2023/02/14 06:44:41;;;;;;;139.43;45.30;;;0.20;99.90;;;;;;4939421;28;20149;-70
2023/02/14 06:47:07;;;;;;;132.90;45.38;;;0.30;99.90;;;;;;4948186;28;20074;-71
2023/02/14 06:49:34;;;;;;;155.82;46.78;;;0.30;99.90;;;;;;4930501;28;20046;-70
2023/02/14 06:52:03;;;;;;;158.68;47.45;;;0.50;99.90;;;;;;4915361;28;20070;-72
2023/02/14 06:54:30;;;;;;;129.05;47.10;;;0.60;99.90;;;;;;4937378;28;20043;-71
2023/02/14 06:56:57;;;;;;;151.95;54.15;;;0.60;99.90;;;;;;4947959;28;20488;-71
2023/02/14 06:59:23;;;;;;;158.00;55.13;;;0.60;99.90;;;;;;4952688;28;20047;-71
2023/02/14 07:01:50;;;;;;;169.75;56.88;;;0.60;99.90;;;;;;4926266;28;20097;-71
2023/02/14 07:04:17;;;;;;;181.20;63.00;;;0.60;99.90;;;;;;4938135;28;20445;-71
2023/02/14 07:06:45;;;;;;;196.57;66.00;;;0.70;99.90;;;;;;4928093;28;20042;-71
2023/02/14 07:09:15;;;;;;;174.55;58.95;;;0.70;99.90;;;;;;4929611;28;20524;-71
2023/02/14 07:11:44;;;;;;;153.95;51.17;;;0.80;99.90;;;;;;4942965;28;20065;-71
2023/02/14 07:14:11;;;;;;;144.68;51.13;;;0.70;99.90;;;;;;4933401;28;20043;-71
2023/02/14 07:16:38;;;;;;;149.48;52.35;;;0.70;99.90;;;;;;4928370;28;20050;-72
2023/02/14 07:19:05;;;;;;;163.50;52.97;;;0.70;99.90;;;;;;4933091;28;20429;-71
2023/02/14 07:21:31;;;;;;;172.30;54.03;;;0.70;99.90;;;;;;4943683;28;20043;-71
2023/02/14 07:23:58;;;;;;;182.90;62.33;;;0.80;99.90;;;;;;4951862;28;20069;-72
2023/02/14 07:26:25;;;;;;;200.48;62.97;;;0.80;99.90;;;;;;4940856;28;20051;-72
2023/02/14 07:28:51;;;;;;;203.02;65.10;;;0.70;99.90;;;;;;4954773;28;20128;-71
2023/02/14 07:31:19;;;;;;;189.38;61.40;;;0.80;99.90;;;;;;4956354;28;20047;-71
2023/02/14 07:33:46;;;;;;;171.02;60.20;;;0.90;99.90;;;;;;4954320;28;20035;-71
2023/02/14 07:36:13;;;;;;;171.32;58.22;;;1.00;99.90;;;;;;4935377;28;20027;-72
2023/02/14 07:38:39;;;;;;;186.60;63.30;;;1.00;99.90;;;;;;4934288;28;20042;-69
2023/02/14 07:41:06;;;;;;;201.23;69.95;;;1.10;99.90;;;;;;4955018;28;20054;-72
2023/02/14 07:43:33;;;;;;;269.25;72.15;;;1.20;99.90;;;;;;4956887;28;20043;-71
2023/02/14 07:46:03;;;;;;;203.95;62.85;;;1.30;99.90;;;;;;4947197;28;20047;-70
2023/02/14 07:48:29;;;;;;;178.15;64.20;;;1.50;99.90;;;;;;4917279;28;20118;-71
2023/02/14 07:51:00;;;;;;;186.68;64.85;;;1.50;99.90;;;;;;4935394;28;20747;-71
2023/02/14 07:53:27;;;;;;;177.18;60.60;;;1.60;99.90;;;;;;4957474;28;20105;-72
2023/02/14 07:55:54;;;;;;;193.40;65.15;;;1.60;99.90;;;;;;4949394;28;20051;-71
2023/02/14 07:58:21;;;;;;;188.50;63.95;;;1.60;99.90;;;;;;4955571;28;20035;-73
2023/02/14 08:00:50;;;;;;;193.88;66.80;;;1.70;99.90;;;;;;4932450;28;20050;-75
2023/02/14 08:03:16;;;;;;;185.38;64.78;;;1.70;99.90;;;;;;4931022;28;20084;-75
2023/02/14 08:05:43;;;;;;;199.88;62.80;;;1.80;99.90;;;;;;4932936;28;20055;-73
2023/02/14 08:08:10;;;;;;;194.15;63.20;;;1.80;99.90;;;;;;4952948;28;20313;-73
2023/02/14 08:10:36;;;;;;;168.63;63.15;;;1.90;99.90;;;;;;4948512;28;20058;-72
2023/02/14 08:13:03;;;;;;;190.93;63.45;;;2.00;99.90;;;;;;4952589;28;20360;-73
2023/02/14 08:18:26;;;;;;;156.65;54.53;;;2.10;99.90;;;;;;4952865;28;20035;-72
2023/02/14 08:20:52;;;;;;;180.05;61.42;;;2.30;99.90;;;;;;4950608;28;20368;-73
2023/02/14 08:23:19;;;;;;;186.55;62.33;;;2.40;99.90;;;;;;4938905;28;20059;-72
2023/02/14 08:25:50;;;;;;;148.35;58.38;;;2.50;99.90;;;;;;4951122;28;20058;-73
2023/02/14 08:28:18;;;;;;;150.73;56.75;;;2.70;99.90;;;;;;4953151;28;20327;-73
2023/02/14 08:30:47;;;;;;;158.02;59.53;;;3.00;99.90;;;;;;4927156;28;20437;-73
2023/02/14 08:33:14;;;;;;;150.68;57.88;;;3.20;99.90;;;;;;4936453;28;20043;-73
2023/02/14 08:35:40;;;;;;;133.10;57.38;;;3.60;99.90;;;;;;4951162;28;20035;-72
2023/02/14 08:38:07;;;;;;;141.70;60.70;;;3.90;99.90;;;;;;4954999;28;20057;-73
2023/02/14 08:40:35;;;;;;;118.90;55.35;;;4.30;99.90;;;;;;4934206;28;20411;-73
2023/02/14 08:43:04;;;;;;;121.50;57.40;;;4.50;99.90;;;;;;4947002;28;20121;-73
2023/02/14 08:45:31;;;;;;;118.30;61.55;;;4.70;99.90;;;;;;4935832;28;20150;-71
2023/02/14 08:48:03;;;;;;;96.85;63.30;;;5.00;99.90;;;;;;4938120;28;20035;-73
2023/02/14 08:50:30;;;;;;;81.57;53.08;;;5.20;99.90;;;;;;4919677;28;20062;-73
2023/02/14 08:52:57;;;;;;;66.82;50.13;;;5.40;99.90;;;;;;4908120;29;20126;-73
2023/02/14 08:55:26;;;;;;;80.95;58.45;;;5.60;99.90;;;;;;4914452;29;20047;-73
2023/02/14 08:57:56;;;;;;;65.57;51.30;;;5.80;99.90;;;;;;4903307;29;20130;-73
2023/02/14 09:00:23;;;;;;;60.58;48.05;;;6.10;99.90;;;;;;4924544;29;20128;-73
2023/02/14 09:02:51;;;;;;;53.42;43.53;;;6.20;99.90;;;;;;4913389;29;20044;-73
2023/02/14 09:05:22;;;;;;;46.08;39.72;;;6.40;99.90;;;;;;4916254;29;20280;-73
2023/02/14 09:07:49;;;;;;;47.70;39.63;;;6.40;99.90;;;;;;4914968;29;20040;-73
2023/02/14 09:10:17;;;;;;;45.22;39.28;;;6.60;99.90;;;;;;4917101;28;20047;-73
2023/02/14 09:12:44;;;;;;;45.70;39.08;;;6.80;99.90;;;;;;4936512;28;20110;-73
2023/02/14 09:15:11;;;;;;;41.63;36.85;;;6.90;99.90;;;;;;4960060;28;20049;-73
2023/02/14 09:17:38;;;;;;;43.83;39.17;;;7.00;99.90;;;;;;4957287;28;20080;-74
2023/02/14 09:20:10;;;;;;;49.78;43.75;;;7.00;99.90;;;;;;4952464;28;20517;-73
2023/02/14 09:22:37;;;;;;;48.15;41.13;;;7.20;99.90;;;;;;4952058;28;20057;-72
2023/02/14 09:25:04;;;;;;;46.80;39.47;;;7.40;99.90;;;;;;4953596;28;20484;-73
2023/02/14 09:27:31;;;;;;;47.75;42.50;;;7.80;99.90;;;;;;4952374;28;20375;-73
2023/02/14 09:29:58;;;;;;;44.13;39.70;;;8.10;99.90;;;;;;4928961;28;20548;-73
2023/02/14 09:32:25;;;;;;;44.20;39.78;;;8.10;99.90;;;;;;4933080;28;20090;-73
2023/02/14 09:34:52;;;;;;;47.10;42.38;;;8.20;99.90;;;;;;4947055;28;20039;-73
2023/02/14 09:40:05;;;;;;;50.05;45.17;;;8.50;99.90;;;;;;4936577;28;20070;-72
2023/02/14 09:42:54;;;;;;;45.65;41.15;;;8.50;99.90;;;;;;4937755;28;20141;-73
2023/02/14 09:45:25;;;;;;;48.80;44.17;;;8.80;99.90;;;;;;4942624;28;20556;-72
2023/02/14 09:48:21;;;;;;;43.90;40.08;;;8.90;99.90;;;;;;4947095;28;20536;-72
2023/02/14 09:50:53;;;;;;;47.40;42.78;;;9.00;99.90;;;;;;4950205;28;20066;-73
2023/02/14 09:53:29;;;;;;;50.58;45.67;;;9.10;99.90;;;;;;4954814;28;20053;-72
2023/02/14 09:56:25;;;;;;;47.50;42.83;;;9.10;99.90;;;;;;4926003;28;20199;-72
2023/02/14 09:58:59;;;;;;;;;;;9.10;99.90;;;;;;4928994;28;20047;-72
2023/02/14 10:01:56;;;;;;;51.50;47.10;;;9.30;99.90;;;;;;4946752;28;19926;-73
2023/02/14 10:04:39;;;;;;;48.58;44.72;;;9.60;99.90;;;;;;4894264;28;20061;-72
2023/02/14 10:07:30;;;;;;;46.33;42.72;;;9.80;99.90;;;;;;4952325;28;20046;-72
2023/02/14 10:10:13;;;;;;;52.03;47.50;;;10.20;99.90;;;;;;4951148;28;20082;-72
2023/02/14 10:12:44;;;;;;;54.95;50.53;;;10.40;99.90;;;;;;4948827;28;20485;-72
2023/02/14 10:15:22;;;;;;;49.55;45.65;;;10.40;99.90;;;;;;4952526;28;20135;-73
2023/02/14 10:17:54;;;;;;;50.08;46.15;;;10.40;99.90;;;;;;4950464;28;20092;-73
2023/02/14 10:20:48;;;;;;;49.65;45.67;;;10.20;99.90;;;;;;4954833;28;20052;-73
2023/02/14 10:23:36;;;;;;;48.13;44.33;;;10.50;99.90;;;;;;4945635;28;20038;-73
2023/02/14 10:26:13;;;;;;;49.90;45.92;;;10.50;99.90;;;;;;4952307;28;20048;-73
2023/02/14 10:28:44;;;;;;;53.78;49.33;;;10.50;99.90;;;;;;4969835;28;20070;-72
2023/02/14 10:31:39;;;;;;;49.67;45.78;;;10.60;99.90;;;;;;4970306;28;20299;-73
2023/02/14 10:34:24;;;;;;;70.75;63.67;;;10.80;99.90;;;;;;4933431;28;20069;-75
2023/02/14 10:37:19;;;;;;;63.40;57.63;;;11.10;99.90;;;;;;4965804;28;20050;-75
2023/02/14 10:40:12;;;;;;;57.60;52.97;;;11.10;99.90;;;;;;4966834;28;20042;-73
2023/02/14 10:43:10;;;;;;;53.45;49.08;;;11.00;99.90;;;;;;4967880;28;20477;-73
2023/02/14 10:45:50;;;;;;;74.85;68.18;;;11.00;99.90;;;;;;4977264;28;20038;-74
2023/02/14 10:48:43;;;;;;;56.60;51.80;;;11.10;99.90;;;;;;4999455;28;20030;-74
2023/02/14 10:51:15;;;;;;;48.72;44.72;;;11.10;99.90;;;;;;4993764;28;20081;-73
2023/02/14 10:54:03;;;;;;;57.08;52.05;;;11.20;99.90;;;;;;4978325;28;20042;-74
2023/02/14 10:56:59;;;;;;;49.05;44.95;;;11.20;99.90;;;;;;4964755;28;20047;-75
2023/02/14 10:59:40;;;;;;;49.67;45.63;;;11.10;99.90;;;;;;4972847;28;20533;-75
2023/02/14 11:02:13;;;;;;;47.97;43.97;;;11.20;99.90;;;;;;4953144;28;20127;-74
2023/02/14 11:04:41;;;;;;;54.83;50.20;;;11.20;99.90;;;;;;4963809;28;20523;-74
2023/02/14 11:07:15;;;;;;;47.40;43.67;;;11.40;99.90;;;;;;4972819;28;20054;-75
2023/02/14 11:09:42;;;;;;;48.53;44.72;;;11.40;99.90;;;;;;4963791;28;20066;-75
2023/02/14 11:12:10;;;;;;;47.90;43.90;;;11.40;99.90;;;;;;4969891;28;20050;-74
2023/02/14 11:14:39;;;;;;;46.83;43.33;;;11.40;99.90;;;;;;4946565;28;20043;-75
2023/02/14 11:17:26;;;;;;;48.47;44.72;;;11.40;99.90;;;;;;4937802;28;20042;-75
2023/02/14 11:20:01;;;;;;;50.08;45.97;;;11.50;99.90;;;;;;4965135;28;20042;-74
2023/02/14 11:22:29;;;;;;;46.80;43.05;;;11.40;99.90;;;;;;4963427;28;20350;-75
2023/02/14 11:25:17;;;;;;;47.85;43.95;;;11.40;99.90;;;;;;4956236;28;20065;-75
2023/02/14 11:27:49;;;;;;;49.17;45.13;;;11.60;99.90;;;;;;4967401;28;20054;-75
2023/02/14 11:30:27;;;;;;;47.92;43.75;;;11.80;99.90;;;;;;4951815;28;20382;-74
2023/02/14 11:32:55;;;;;;;49.30;45.25;;;12.00;99.90;;;;;;4946590;28;20297;-75
2023/02/14 11:35:26;;;;;;;48.25;44.47;;;12.00;99.90;;;;;;4949399;28;20205;-74
2023/02/14 11:37:55;;;;;;;49.05;45.25;;;12.00;99.90;;;;;;4960817;28;20042;-75
2023/02/14 11:40:28;;;;;;;47.05;43.33;;;12.10;99.90;;;;;;4969304;28;20420;-75
2023/02/14 11:42:58;;;;;;;46.25;42.55;;;12.00;99.90;;;;;;4947552;28;20049;-76
2023/02/14 11:45:42;;;;;;;50.63;46.58;;;12.00;99.90;;;;;;4952270;28;20061;-75
2023/02/14 11:48:21;;;;;;;46.20;42.47;;;12.10;99.90;;;;;;4949798;28;20046;-75
2023/02/14 11:51:15;;;;;;;48.05;44.35;;;12.00;99.90;;;;;;4948445;28;20221;-75
2023/02/14 11:53:51;;;;;;;46.10;42.40;;;12.00;99.90;;;;;;4971382;28;20078;-75
2023/02/14 11:56:19;;;;;;;46.78;42.78;;;12.10;99.90;;;;;;4971039;28;20042;-75
2023/02/14 11:58:55;;;;;;;44.08;40.45;;;11.80;99.90;;;;;;4961577;28;20068;-75
2023/02/14 12:01:31;;;;;;;46.92;43.20;;;11.80;99.90;;;;;;4966049;28;20049;-76
2023/02/14 12:04:12;;;;;;;44.78;41.15;;;12.00;99.90;;;;;;4961701;28;20367;-75
2023/02/14 12:06:39;;;;;;;45.47;41.88;;;12.20;99.90;;;;;;4967543;28;20046;-75
2023/02/14 12:09:30;;;;;;;46.38;42.60;;;12.30;99.90;;;;;;4948609;28;20225;-74
2023/02/14 12:12:15;;;;;;;49.55;45.15;;;12.20;99.90;;;;;;4947844;28;20034;-76
2023/02/14 12:14:41;;;;;;;46.85;42.83;;;12.20;99.90;;;;;;4969067;28;20357;-74
2023/02/14 12:17:17;;;;;;;45.50;41.63;;;12.40;99.90;;;;;;4970276;28;20196;-75
2023/02/14 12:20:11;;;;;;;46.45;42.78;;;12.40;99.90;;;;;;4972635;28;20513;-75
2023/02/14 12:23:00;;;;;;;45.55;41.95;;;12.40;99.90;;;;;;4972013;28;20472;-76
2023/02/14 12:25:41;;;;;;;47.67;43.75;;;12.50;99.90;;;;;;4967859;28;20177;-76
2023/02/14 12:28:14;;;;;;;46.85;42.92;;;12.40;99.90;;;;;;4972548;28;20050;-76
2023/02/14 12:30:41;;;;;;;46.65;42.80;;;12.30;99.90;;;;;;4952689;28;20491;-75
2023/02/14 12:33:19;;;;;;;44.05;40.38;;;12.10;99.90;;;;;;4952809;28;20350;-75
2023/02/14 12:36:11;;;;;;;45.10;41.25;;;12.10;99.90;;;;;;4964042;28;20114;-74
2023/02/14 12:39:11;;;;;;;47.33;43.33;;;12.10;99.90;;;;;;4955676;28;20105;-75
2023/02/14 12:41:56;;;;;;;45.55;41.80;;;12.30;99.90;;;;;;4963997;28;20494;-75
2023/02/14 12:44:55;;;;;;;45.03;41.40;;;12.10;99.90;;;;;;4975731;28;20050;-74
2023/02/14 12:47:53;;;;;;;45.45;41.72;;;12.10;99.90;;;;;;4972535;28;20582;-74
2023/02/14 12:50:53;;;;;;;47.92;43.78;;;12.20;99.90;;;;;;4969339;28;20509;-75
2023/02/14 12:53:55;;;;;;;48.13;43.97;;;12.30;99.90;;;;;;4967833;28;20072;-75
2023/02/14 12:56:41;;;;;;;46.92;42.80;;;12.20;99.90;;;;;;4938204;28;20056;-75
2023/02/14 12:59:39;;;;;;;49.45;44.97;;;12.20;99.90;;;;;;4954706;28;21128;-76
2023/02/14 13:02:34;;;;;;;53.53;48.10;;;12.40;99.90;;;;;;4967767;28;20773;-75
2023/02/14 13:05:01;;;;;;;49.57;45.13;;;12.60;99.90;;;;;;4953615;28;20038;-74
2023/02/14 13:07:47;;;;;;;47.80;43.78;;;12.70;99.90;;;;;;4957215;28;20046;-74
2023/02/14 13:10:34;;;;;;;47.42;43.38;;;12.70;99.90;;;;;;4956979;28;20456;-75
2023/02/14 13:13:10;;;;;;;45.85;41.47;;;12.40;99.90;;;;;;4966918;28;20073;-73
2023/02/14 13:16:07;;;;;;;51.20;46.50;;;12.30;99.90;;;;;;4956318;28;20043;-75
2023/02/14 13:18:52;;;;;;;55.28;49.42;;;12.10;99.90;;;;;;4973138;28;20105;-75
2023/02/14 13:21:25;;;;;;;51.67;46.97;;;12.00;99.90;;;;;;4957219;28;20453;-75
2023/02/14 13:23:57;;;;;;;47.38;43.15;;;12.10;99.90;;;;;;4970328;28;20039;-75
2023/02/14 13:26:34;;;;;;;49.38;44.58;;;12.10;99.90;;;;;;4968258;28;20066;-74